createdAt,value
2022-12-14T00:02:07.484Z,9.97
2022-12-14T00:04:35.873Z,8.87
2022-12-14T00:07:04.641Z,8.27
2022-12-14T00:09:34.243Z,9.77
2022-12-14T00:12:02.851Z,9.73
2022-12-14T00:14:31.074Z,8.40
2022-12-14T00:16:59.696Z,9.63
2022-12-14T00:19:28.148Z,10.10
2022-12-14T00:21:56.651Z,8.70
2022-12-14T00:24:25.640Z,8.73
2022-12-14T00:26:55.488Z,8.30
2022-12-14T00:29:23.755Z,10.17
2022-12-14T00:31:52.336Z,9.03
2022-12-14T00:34:20.721Z,10.27
2022-12-14T00:36:49.282Z,9.63
2022-12-14T00:39:17.558Z,10.67
2022-12-14T00:41:46.108Z,9.40
2022-12-14T00:44:15.730Z,9.70
2022-12-14T00:46:44.508Z,8.10
2022-12-14T00:49:13.083Z,8.20
2022-12-14T00:51:41.619Z,10.77
2022-12-14T00:54:09.961Z,8.40
2022-12-14T00:56:38.482Z,9.63
2022-12-14T00:59:06.993Z,8.70
2022-12-14T01:01:37.368Z,9.83
2022-12-14T01:04:18.621Z,9.87
2022-12-14T01:06:49.070Z,10.40
2022-12-14T01:09:17.756Z,9.57
2022-12-14T01:11:46.820Z,9.93
2022-12-14T01:14:16.965Z,8.80
2022-12-14T01:16:47.335Z,9.00
2022-12-14T01:19:16.501Z,10.03
2022-12-14T01:21:44.978Z,10.00
2022-12-14T01:24:13.290Z,10.03
2022-12-14T01:26:41.986Z,10.27
2022-12-14T01:29:11.700Z,10.60
2022-12-14T01:31:40.310Z,10.47
2022-12-14T01:34:11.045Z,11.07
2022-12-14T01:36:40.231Z,9.30
2022-12-14T01:39:13.545Z,10.70
2022-12-14T01:41:44.715Z,10.87
2022-12-14T01:44:52.228Z,9.93
2022-12-14T01:47:26.474Z,11.73
2022-12-14T01:50:00.991Z,11.20
2022-12-14T01:52:35.007Z,11.43
2022-12-14T01:55:06.664Z,10.77
2022-12-14T01:57:39.633Z,11.70
2022-12-14T02:00:10.342Z,10.80
2022-12-14T02:02:41.769Z,12.27
2022-12-14T02:05:14.155Z,11.03
2022-12-14T02:07:49.063Z,10.77
2022-12-14T02:10:18.697Z,10.17
2022-12-14T02:12:51.280Z,10.30
2022-12-14T02:15:19.755Z,11.93
2022-12-14T02:17:49.533Z,10.97
2022-12-14T02:20:20.614Z,10.97
2022-12-14T02:23:25.329Z,10.60
2022-12-14T02:26:24.075Z,10.37
2022-12-14T02:29:31.150Z,10.97
2022-12-14T02:32:10.721Z,11.77
2022-12-14T02:34:52.773Z,10.63
2022-12-14T02:37:26.680Z,12.13
2022-12-14T02:40:06.448Z,12.07
2022-12-14T02:42:45.790Z,11.00
2022-12-14T02:45:22.173Z,10.07
2022-12-14T02:47:54.733Z,10.97
2022-12-14T02:50:29.466Z,10.60
2022-12-14T02:53:04.601Z,10.47
2022-12-14T02:55:37.276Z,12.10
2022-12-14T02:58:08.829Z,12.27
2022-12-14T03:00:39.782Z,11.30
2022-12-14T03:03:08.703Z,11.47
2022-12-14T03:05:37.625Z,12.87
2022-12-14T03:08:09.210Z,10.97
2022-12-14T03:10:44.133Z,11.97
2022-12-14T03:13:20.063Z,11.53
2022-12-14T03:15:56.210Z,11.80
2022-12-14T03:18:28.660Z,11.63
2022-12-14T03:21:00.606Z,11.83
2022-12-14T03:23:33.790Z,11.70
2022-12-14T03:26:09.259Z,11.37
2022-12-14T03:28:45.624Z,11.23
2022-12-14T03:31:20.392Z,11.23
2022-12-14T03:33:51.499Z,10.37
2022-12-14T03:36:26.702Z,11.83
2022-12-14T03:38:59.374Z,12.23
2022-12-14T03:41:35.643Z,12.20
2022-12-14T03:44:17.132Z,11.77
2022-12-14T03:46:57.278Z,11.40
2022-12-14T03:49:38.970Z,11.13
2022-12-14T03:52:15.342Z,11.83
2022-12-14T03:54:52.506Z,11.90
2022-12-14T03:57:34.349Z,10.53
2022-12-14T04:00:07.744Z,11.90
2022-12-14T04:02:46.328Z,11.63
2022-12-14T04:05:19.368Z,12.17
2022-12-14T04:07:57.118Z,11.57
2022-12-14T04:10:47.280Z,10.63
2022-12-14T04:13:38.171Z,10.93
2022-12-14T04:16:30.167Z,12.13
2022-12-14T04:19:03.987Z,11.50
2022-12-14T04:21:39.928Z,11.60
2022-12-14T04:24:30.856Z,11.60
2022-12-14T04:27:05.335Z,12.70
2022-12-14T04:29:52.494Z,12.30
2022-12-14T04:32:24.172Z,13.07
2022-12-14T04:34:58.510Z,11.83
2022-12-14T04:37:29.708Z,13.47
2022-12-14T04:40:05.290Z,14.07
2022-12-14T04:42:37.049Z,11.60
2022-12-14T04:45:10.501Z,12.03
2022-12-14T04:47:46.965Z,13.03
2022-12-14T04:50:22.035Z,14.00
2022-12-14T04:52:55.290Z,14.23
2022-12-14T04:55:30.777Z,13.13
2022-12-14T04:58:03.116Z,14.10
2022-12-14T05:00:37.026Z,13.53
2022-12-14T05:03:22.692Z,13.60
2022-12-14T05:06:00.316Z,14.50
2022-12-14T05:08:54.405Z,14.80
2022-12-14T05:14:22.204Z,14.97
2022-12-14T05:16:51.678Z,14.67
2022-12-14T05:19:20.077Z,15.60
2022-12-14T05:21:50.172Z,16.03
2022-12-14T05:24:18.736Z,15.07
2022-12-14T05:26:47.303Z,15.47
2022-12-14T05:29:17.856Z,16.90
2022-12-14T05:31:49.190Z,14.33
2022-12-14T05:34:18.468Z,17.60
2022-12-14T05:36:47.057Z,14.10
2022-12-14T05:39:17.728Z,17.10
2022-12-14T05:41:46.403Z,15.90
2022-12-14T05:44:14.928Z,16.43
2022-12-14T05:46:43.416Z,16.47
2022-12-14T05:49:12.004Z,16.37
2022-12-14T05:51:40.747Z,16.83
2022-12-14T05:54:09.050Z,16.57
2022-12-14T05:56:38.945Z,18.07
2022-12-14T05:59:07.462Z,15.10
2022-12-14T06:01:36.070Z,16.70
2022-12-14T06:04:04.476Z,15.87
2022-12-14T06:06:34.407Z,17.20
2022-12-14T06:09:02.743Z,18.13
2022-12-14T06:11:31.348Z,17.13
2022-12-14T06:14:01.015Z,16.37
2022-12-14T06:16:29.604Z,17.10
2022-12-14T06:18:59.890Z,16.10
2022-12-14T06:21:30.405Z,16.57
2022-12-14T06:23:59.605Z,16.60
2022-12-14T06:26:29.912Z,17.40
2022-12-14T06:29:00.370Z,17.97
2022-12-14T06:31:31.168Z,16.40
2022-12-14T06:34:01.737Z,18.73
2022-12-14T06:36:32.362Z,19.23
2022-12-14T06:39:02.804Z,18.63
2022-12-14T06:41:31.533Z,18.97
2022-12-14T06:44:06.842Z,17.30
2022-12-14T06:46:37.200Z,20.17
2022-12-14T06:49:06.742Z,20.43
2022-12-14T06:51:40.879Z,17.93
2022-12-14T06:54:11.733Z,18.00
2022-12-14T06:56:41.008Z,19.50
2022-12-14T06:59:11.932Z,19.50
2022-12-14T07:01:41.258Z,17.77
2022-12-14T07:04:10.919Z,17.17
2022-12-14T07:06:41.906Z,18.67
2022-12-14T07:09:13.382Z,17.47
2022-12-14T07:11:43.209Z,18.23
2022-12-14T07:14:17.128Z,17.87
2022-12-14T07:16:48.654Z,18.53
2022-12-14T07:19:18.092Z,17.10
2022-12-14T07:21:46.736Z,17.13
2022-12-14T07:24:15.145Z,16.53
2022-12-14T07:26:43.866Z,16.23
2022-12-14T07:29:15.174Z,15.40
2022-12-14T07:31:43.853Z,15.00
2022-12-14T07:34:18.091Z,15.63
2022-12-14T07:36:46.987Z,14.37
2022-12-14T07:39:15.601Z,14.43
2022-12-14T07:41:45.567Z,13.17
2022-12-14T07:44:15.721Z,12.60
2022-12-14T07:46:45.636Z,13.53
2022-12-14T07:49:14.495Z,12.93
2022-12-14T07:51:44.305Z,11.87
2022-12-14T07:54:13.820Z,12.87
2022-12-14T07:56:44.724Z,12.40
2022-12-14T07:59:16.398Z,11.90
2022-12-14T08:01:46.001Z,12.67
2022-12-14T08:04:16.422Z,11.23
2022-12-14T08:06:46.908Z,12.10
2022-12-14T08:09:16.774Z,11.23
2022-12-14T08:11:45.700Z,12.60
2022-12-14T08:14:18.267Z,12.63
2022-12-14T08:16:48.384Z,11.87
2022-12-14T08:19:17.772Z,11.70
2022-12-14T08:21:46.485Z,10.07
2022-12-14T08:24:16.788Z,11.80
2022-12-14T08:26:49.168Z,11.30
2022-12-14T08:29:19.989Z,11.53
2022-12-14T08:31:48.856Z,12.73
2022-12-14T08:34:22.861Z,11.33
2022-12-14T08:36:51.922Z,11.03
2022-12-14T08:39:20.385Z,12.87
2022-12-14T08:41:48.956Z,11.77
2022-12-14T08:44:18.761Z,11.20
2022-12-14T08:46:49.141Z,12.57
2022-12-14T08:49:17.677Z,10.67
2022-12-14T08:51:46.242Z,11.03
2022-12-14T08:54:14.509Z,9.87
2022-12-14T08:56:43.131Z,11.07
2022-12-14T08:59:29.974Z,9.93
2022-12-14T09:02:01.642Z,10.73
2022-12-14T09:04:30.247Z,11.03
2022-12-14T09:06:59.020Z,11.07
2022-12-14T09:09:27.471Z,11.63
2022-12-14T09:11:56.093Z,11.40
2022-12-14T09:14:24.417Z,12.53
2022-12-14T09:16:52.921Z,10.53
2022-12-14T09:19:22.885Z,11.80
2022-12-14T09:21:51.525Z,12.70
2022-12-14T09:24:20.372Z,12.87
2022-12-14T09:26:49.280Z,12.87
2022-12-14T09:29:19.363Z,13.20
2022-12-14T09:31:48.202Z,14.40
2022-12-14T09:34:16.872Z,13.57
2022-12-14T09:36:46.969Z,13.70
2022-12-14T09:39:15.506Z,14.70
2022-12-14T09:42:02.920Z,16.13
2022-12-14T09:44:44.584Z,15.60
2022-12-14T09:47:18.938Z,14.23
2022-12-14T09:49:50.861Z,16.10
2022-12-14T09:52:24.821Z,13.87
2022-12-14T09:54:54.901Z,14.33
2022-12-14T09:57:30.114Z,15.20
2022-12-14T09:59:58.507Z,14.30
2022-12-14T10:02:41.786Z,15.57
2022-12-14T10:05:42.267Z,14.37
2022-12-14T10:08:21.785Z,15.53
2022-12-14T10:10:59.487Z,15.30
2022-12-14T10:13:39.473Z,16.07
2022-12-14T10:16:16.389Z,15.77
2022-12-14T10:19:09.463Z,17.53
2022-12-14T10:21:47.355Z,16.63
2022-12-14T10:24:25.383Z,16.80
2022-12-14T10:26:56.200Z,15.33
2022-12-14T10:29:33.234Z,16.77
2022-12-14T10:32:13.720Z,18.13
2022-12-14T10:34:43.626Z,17.23
2022-12-14T10:37:25.809Z,16.50
2022-12-14T10:40:24.738Z,16.47
2022-12-14T10:43:14.474Z,16.80
2022-12-14T10:45:50.485Z,15.47
2022-12-14T10:48:40.196Z,15.33
2022-12-14T10:51:12.081Z,14.83
2022-12-14T10:53:45.944Z,16.33
2022-12-14T10:56:21.944Z,14.83
2022-12-14T10:59:26.499Z,17.27
2022-12-14T11:02:00.558Z,14.53
2022-12-14T11:04:32.729Z,15.33
2022-12-14T11:07:03.138Z,15.27
2022-12-14T11:09:32.009Z,14.57
2022-12-14T11:12:05.373Z,14.17
2022-12-14T11:14:34.260Z,15.00
2022-12-14T11:17:02.909Z,14.63
2022-12-14T11:19:31.330Z,14.73
2022-12-14T11:22:18.685Z,13.47
2022-12-14T11:24:51.412Z,14.20
2022-12-14T11:27:22.858Z,14.60
2022-12-14T11:29:52.247Z,12.83
2022-12-14T11:32:25.408Z,13.83
2022-12-14T11:34:59.331Z,14.70
2022-12-14T11:37:30.018Z,14.37
2022-12-14T11:40:01.563Z,16.17
2022-12-14T11:42:32.148Z,14.97
2022-12-14T11:45:20.946Z,14.13
2022-12-14T11:48:20.055Z,14.27
2022-12-14T11:50:49.533Z,13.63
2022-12-14T11:53:19.777Z,14.47
2022-12-14T11:55:53.763Z,15.67
2022-12-14T11:58:26.416Z,15.30
2022-12-14T12:01:00.377Z,14.40
2022-12-14T12:03:36.064Z,14.53
2022-12-14T12:06:08.565Z,14.20
2022-12-14T12:08:40.254Z,15.10
2022-12-14T12:11:17.459Z,14.10
2022-12-14T12:13:48.376Z,14.73
2022-12-14T12:16:20.104Z,14.40
2022-12-14T12:18:53.904Z,15.73
2022-12-14T12:21:26.060Z,14.20
2022-12-14T12:24:00.247Z,14.63
2022-12-14T12:26:33.007Z,14.73
2022-12-14T12:29:07.953Z,15.43
2022-12-14T12:31:41.600Z,16.10
2022-12-14T12:34:17.104Z,17.37
2022-12-14T12:37:24.205Z,16.80
2022-12-14T12:39:36.760Z,15.33
2022-12-14T12:42:17.900Z,18.30
2022-12-14T12:44:51.853Z,18.93
2022-12-14T12:47:32.057Z,15.60
2022-12-14T12:50:15.633Z,17.17
2022-12-14T12:52:57.929Z,16.73
2022-12-14T12:55:35.380Z,17.33
2022-12-14T12:58:09.924Z,16.90
2022-12-14T13:00:41.248Z,16.50
2022-12-14T13:03:18.537Z,17.97
2022-12-14T13:05:49.462Z,17.10
2022-12-14T13:08:27.477Z,17.50
2022-12-14T13:13:51.362Z,16.00
2022-12-14T13:16:27.400Z,17.40
2022-12-14T13:19:19.105Z,17.57
2022-12-14T13:21:54.297Z,16.83
2022-12-14T13:24:25.055Z,17.03
2022-12-14T13:27:34.560Z,17.70
2022-12-14T13:30:23.171Z,16.90
2022-12-14T13:33:08.200Z,17.20
2022-12-14T13:35:59.690Z,18.10
2022-12-14T13:38:50.624Z,18.27
2022-12-14T13:41:33.512Z,19.30
2022-12-14T13:44:19.205Z,18.27
2022-12-14T13:46:57.216Z,19.00
2022-12-14T13:49:26.435Z,18.73
2022-12-14T13:51:55.371Z,17.43
2022-12-14T13:54:29.123Z,19.30
2022-12-14T13:57:06.444Z,19.60
2022-12-14T13:59:39.457Z,19.57
2022-12-14T14:02:30.597Z,17.03
2022-12-14T14:05:45.533Z,17.40
2022-12-14T14:08:37.701Z,16.77
2022-12-14T14:12:01.704Z,17.03
2022-12-14T14:14:47.613Z,16.33
2022-12-14T14:17:25.447Z,18.07
2022-12-14T14:19:56.062Z,17.60
2022-12-14T14:22:27.296Z,15.03
2022-12-14T14:24:59.002Z,17.60
2022-12-14T14:27:37.075Z,16.27
2022-12-14T14:30:27.095Z,15.80
2022-12-14T14:33:20.092Z,16.77
2022-12-14T14:35:49.646Z,16.17
2022-12-14T14:38:27.008Z,17.83
2022-12-14T14:41:16.217Z,15.37
2022-12-14T14:43:51.698Z,16.53
2022-12-14T14:46:32.508Z,14.57
2022-12-14T14:49:02.029Z,16.77
2022-12-14T14:51:35.386Z,18.83
2022-12-14T14:55:10.771Z,19.80
2022-12-14T14:57:36.148Z,17.70
2022-12-14T15:00:07.110Z,19.17
2022-12-14T15:02:42.272Z,16.30
2022-12-14T15:08:18.091Z,17.23
2022-12-14T15:10:47.756Z,17.87
2022-12-14T15:13:20.992Z,16.83
2022-12-14T15:15:53.241Z,16.87
2022-12-14T15:18:25.754Z,15.90
2022-12-14T15:21:01.902Z,17.90
2022-12-14T15:23:36.692Z,21.50
2022-12-14T15:26:16.590Z,24.43
2022-12-14T15:28:49.563Z,24.83
2022-12-14T15:31:19.539Z,23.20
2022-12-14T15:33:49.625Z,23.80
2022-12-14T15:36:20.798Z,23.47
2022-12-14T15:38:53.899Z,22.37
2022-12-14T15:41:25.607Z,19.60
2022-12-14T15:43:59.599Z,21.13
2022-12-14T15:46:30.344Z,21.23
2022-12-14T15:49:01.586Z,21.97
2022-12-14T15:51:34.104Z,22.97
2022-12-14T15:54:03.804Z,23.50
2022-12-14T15:56:35.463Z,20.27
2022-12-14T15:59:08.306Z,21.00
2022-12-14T16:01:46.180Z,20.23
2022-12-14T16:04:23.773Z,18.57
2022-12-14T16:06:57.278Z,18.40
2022-12-14T16:09:29.606Z,18.30
2022-12-14T16:12:00.678Z,20.03
2022-12-14T16:14:35.165Z,20.40
2022-12-14T16:17:05.606Z,20.20
2022-12-14T16:19:57.374Z,22.27
2022-12-14T16:22:28.339Z,22.33
2022-12-14T16:25:19.140Z,23.40
2022-12-14T16:27:51.012Z,23.67
2022-12-14T16:30:26.340Z,24.47
2022-12-14T16:33:08.613Z,25.97
2022-12-14T16:35:39.395Z,24.90
2022-12-14T16:38:09.799Z,23.90
2022-12-14T16:40:40.670Z,23.80
2022-12-14T16:43:26.656Z,23.97
2022-12-14T16:46:14.830Z,29.90
2022-12-14T16:48:50.085Z,29.27
2022-12-14T16:54:28.352Z,31.50
2022-12-14T16:57:04.098Z,28.60
2022-12-14T16:59:41.245Z,26.57
2022-12-14T17:02:28.196Z,29.17
2022-12-14T17:04:59.648Z,26.27
2022-12-14T17:07:32.064Z,28.60
2022-12-14T17:10:01.033Z,29.73
2022-12-14T17:12:29.411Z,29.53
2022-12-14T17:14:57.997Z,28.23
2022-12-14T17:17:32.009Z,27.60
2022-12-14T17:20:00.834Z,29.20
2022-12-14T17:22:33.722Z,30.90
2022-12-14T17:25:02.676Z,29.27
2022-12-14T17:27:31.322Z,28.97
2022-12-14T17:29:59.835Z,32.83
2022-12-14T17:32:31.259Z,32.03
2022-12-14T17:35:00.289Z,32.67
2022-12-14T17:37:35.950Z,35.43
2022-12-14T17:40:07.646Z,35.73
2022-12-14T17:42:38.642Z,33.10
2022-12-14T17:45:11.144Z,35.20
2022-12-14T17:47:39.416Z,35.23
2022-12-14T17:50:08.714Z,34.23
2022-12-14T17:52:38.348Z,35.47
2022-12-14T17:55:07.735Z,33.77
2022-12-14T17:57:36.013Z,32.37
2022-12-14T18:00:23.827Z,33.03
2022-12-14T18:02:52.868Z,32.37
2022-12-14T18:05:23.395Z,33.20
2022-12-14T18:07:53.294Z,32.77
2022-12-14T18:10:22.621Z,30.70
2022-12-14T18:12:51.187Z,30.73
2022-12-14T18:15:22.446Z,34.07
2022-12-14T18:17:51.692Z,30.87
2022-12-14T18:20:21.217Z,32.17
2022-12-14T18:22:50.034Z,32.87
2022-12-14T18:25:30.095Z,31.47
2022-12-14T18:27:59.636Z,33.33
2022-12-14T18:30:33.278Z,30.60
2022-12-14T18:33:05.257Z,30.60
2022-12-14T18:35:34.913Z,30.67
2022-12-14T18:38:03.091Z,30.20
2022-12-14T18:40:33.195Z,28.77
2022-12-14T18:43:01.534Z,29.13
2022-12-14T18:45:32.348Z,29.07
2022-12-14T18:48:01.386Z,29.67
2022-12-14T18:50:30.439Z,30.80
2022-12-14T18:53:00.808Z,29.23
2022-12-14T18:55:32.295Z,28.03
2022-12-14T18:58:03.692Z,30.90
2022-12-14T19:00:34.730Z,30.10
2022-12-14T19:03:04.454Z,31.80
2022-12-14T19:05:33.310Z,31.17
2022-12-14T19:08:02.035Z,30.33
2022-12-14T19:10:32.642Z,28.73
2022-12-14T19:13:02.372Z,30.57
2022-12-14T19:15:33.481Z,30.17
2022-12-14T19:18:02.045Z,32.67
2022-12-14T19:20:31.004Z,36.07
2022-12-14T19:22:59.340Z,31.93
2022-12-14T19:25:28.312Z,32.73
2022-12-14T19:30:47.595Z,34.87
2022-12-14T19:33:15.870Z,32.77
2022-12-14T19:35:44.951Z,35.17
2022-12-14T19:38:16.340Z,32.97
2022-12-14T19:40:57.803Z,33.40
2022-12-14T19:43:26.326Z,33.17
2022-12-14T19:45:56.405Z,33.73
2022-12-14T19:48:24.913Z,33.70
2022-12-14T19:50:53.674Z,35.30
2022-12-14T19:53:23.989Z,32.97
2022-12-14T19:55:53.611Z,32.40
2022-12-14T19:58:25.005Z,29.87
2022-12-14T20:00:53.915Z,33.27
2022-12-14T20:03:24.232Z,33.83
2022-12-14T20:05:54.036Z,34.73
2022-12-14T20:08:22.940Z,32.03
2022-12-14T20:10:52.736Z,36.40
2022-12-14T20:13:21.376Z,32.47
2022-12-14T20:15:50.964Z,35.87
2022-12-14T20:18:19.491Z,34.70
2022-12-14T20:20:50.297Z,35.33
2022-12-14T20:23:20.408Z,34.00
2022-12-14T20:25:49.145Z,34.17
2022-12-14T20:28:17.605Z,33.33
2022-12-14T20:30:48.288Z,33.63
2022-12-14T20:33:16.495Z,34.73
2022-12-14T20:35:45.026Z,34.97
2022-12-14T20:38:14.765Z,32.53
2022-12-14T20:40:43.297Z,35.17
2022-12-14T20:43:11.778Z,34.73
2022-12-14T20:45:40.979Z,33.70
2022-12-14T20:48:10.032Z,36.37
2022-12-14T20:50:40.789Z,35.00
2022-12-14T20:53:09.583Z,31.67
2022-12-14T20:55:39.397Z,33.77
2022-12-14T20:58:07.691Z,32.63
2022-12-14T21:00:37.049Z,31.93
2022-12-14T21:03:05.548Z,31.83
2022-12-14T21:05:34.306Z,31.67
2022-12-14T21:08:02.610Z,32.40
2022-12-14T21:10:31.400Z,33.53
2022-12-14T21:13:05.779Z,34.23
2022-12-14T21:15:36.587Z,31.20
2022-12-14T21:18:05.207Z,28.83
2022-12-14T21:20:33.850Z,30.60
2022-12-14T21:23:02.266Z,32.33
2022-12-14T21:25:31.009Z,31.03
2022-12-14T21:28:00.784Z,32.93
2022-12-14T21:30:29.640Z,30.80
2022-12-14T21:32:58.667Z,31.93
2022-12-14T21:35:27.241Z,37.50
2022-12-14T21:37:55.572Z,36.03
2022-12-14T21:40:41.669Z,36.47
2022-12-14T21:43:12.831Z,37.10
2022-12-14T21:45:41.353Z,34.50
2022-12-14T21:48:09.613Z,34.80
2022-12-14T21:50:38.151Z,34.93
2022-12-14T21:53:06.374Z,34.97
2022-12-14T21:55:35.070Z,32.27
2022-12-14T21:58:17.126Z,34.40
2022-12-14T22:00:47.115Z,29.20
2022-12-14T22:03:15.637Z,32.63
2022-12-14T22:05:44.184Z,31.10
2022-12-14T22:08:12.510Z,29.50
2022-12-14T22:10:41.102Z,30.77
2022-12-14T22:13:09.321Z,31.27
2022-12-14T22:15:37.807Z,30.13
2022-12-14T22:18:07.531Z,31.17
2022-12-14T22:20:36.148Z,28.17
2022-12-14T22:23:04.518Z,31.33
2022-12-14T22:25:33.224Z,29.03
2022-12-14T22:28:01.516Z,28.77
2022-12-14T22:30:32.075Z,29.90
2022-12-14T22:33:00.342Z,32.50
2022-12-14T22:35:30.297Z,30.17
2022-12-14T22:37:59.672Z,30.87
2022-12-14T22:40:28.628Z,31.23
2022-12-14T22:42:56.944Z,32.57
2022-12-14T22:45:25.521Z,27.57
2022-12-14T22:47:54.091Z,28.67
2022-12-14T22:50:22.665Z,29.30
2022-12-14T22:52:52.238Z,28.07
2022-12-14T22:55:21.097Z,28.57
2022-12-14T22:57:49.528Z,29.60
2022-12-14T23:00:18.320Z,29.77
2022-12-14T23:02:48.443Z,29.60
2022-12-14T23:05:18.622Z,29.73
2022-12-14T23:07:47.535Z,28.80
2022-12-14T23:10:35.356Z,29.07
2022-12-14T23:13:21.195Z,30.57
2022-12-14T23:16:07.221Z,29.67
2022-12-14T23:18:52.897Z,29.30
2022-12-14T23:21:39.452Z,27.80
2022-12-14T23:24:25.747Z,27.87
2022-12-14T23:27:12.954Z,30.77
2022-12-14T23:29:58.697Z,30.33
2022-12-14T23:32:44.729Z,30.93
2022-12-14T23:35:30.734Z,29.00
2022-12-14T23:38:22.655Z,31.00
2022-12-14T23:41:08.778Z,31.17
2022-12-14T23:43:56.403Z,29.57
2022-12-14T23:46:42.370Z,30.53
2022-12-14T23:49:28.758Z,30.93
2022-12-14T23:52:14.681Z,30.20
2022-12-14T23:55:00.906Z,29.10
2022-12-14T23:57:46.762Z,29.47
